Time;durP1;ratioP1;P1;durP2;ratioP2;P2;SDS_P1;SDS_P2;PMS_P1;PMS_P2;Temp;Humidity;BMP_temperature;BMP_pressure;BME280_temperature;BME280_humidity;BME280_pressure;Samples;Min_cycle;Max_cycle;Signal;HPM_P1;HPM_P2
2022/06/24 00:00:54;;;;;;;5.97;2.35;;;;;;;;;;5075989;28;20375;-66
2022/06/24 00:03:19;;;;;;;5.90;2.47;;;;;;;;;;5081503;28;20460;-66
2022/06/24 00:05:47;;;;;;;5.70;2.33;;;;;;;;;;5074053;28;20025;-67
2022/06/24 00:08:13;;;;;;;6.13;2.60;;;;;;;;;;5075202;28;20052;-66
2022/06/24 00:10:38;;;;;;;7.55;2.38;;;;;;;;;;5071115;28;21515;-66
2022/06/24 00:13:04;;;;;;;6.82;2.67;;;;;;;;;;5071698;28;20055;-66
2022/06/24 00:15:31;;;;;;;7.03;2.40;;;;;;;;;;5069140;28;20024;-66
2022/06/24 00:17:56;;;;;;;6.28;2.55;;;;;;;;;;5069891;28;20445;-66
2022/06/24 00:20:22;;;;;;;6.10;2.50;;;;;;;;;;5070275;28;20103;-66
2022/06/24 00:22:48;;;;;;;3.95;2.30;;;;;;;;;;5080659;28;20032;-66
2022/06/24 00:25:19;;;;;;;6.78;2.80;;;;;;;;;;5074925;28;20036;-66
2022/06/24 00:28:04;;;;;;;4.22;2.42;;;;;;;;;;5070086;28;20036;-66
2022/06/24 00:30:34;;;;;;;5.35;2.35;;;;;;;;;;5079081;28;20041;-66
2022/06/24 00:33:15;;;;;;;4.32;2.40;;;;;;;;;;5074021;28;20067;-66
2022/06/24 00:35:48;;;;;;;36.58;3.45;;;;;;;;;;5072936;28;20031;-66
2022/06/24 00:38:31;;;;;;;7.45;2.58;;;;;;;;;;5079695;28;20107;-67
2022/06/24 00:40:57;;;;;;;8.05;2.65;;;;;;;;;;5080397;28;20024;-66
2022/06/24 00:43:27;;;;;;;10.90;2.80;;;;;;;;;;5078799;28;20047;-66
2022/06/24 00:45:58;;;;;;;12.55;2.70;;;;;;;;;;5077308;28;20031;-66
2022/06/24 00:48:25;;;;;;;6.70;2.92;;;;;;;;;;5073176;28;20456;-67
2022/06/24 00:50:50;;;;;;;5.38;2.80;;;;;;;;;;5074043;28;20043;-66
2022/06/24 00:53:16;;;;;;;5.15;2.70;;;;;;;;;;5075094;28;20032;-66
2022/06/24 00:55:41;;;;;;;6.20;2.95;;;;;;;;;;5085315;28;20028;-66
2022/06/24 00:58:12;;;;;;;5.05;2.55;;;;;;;;;;5081416;28;20020;-66
2022/06/24 01:00:37;;;;;;;5.32;2.70;;;;;;;;;;5085518;28;20012;-66
2022/06/24 01:03:03;;;;;;;7.60;2.80;;;;;;;;;;5087986;28;20468;-66
2022/06/24 01:05:29;;;;;;;6.07;2.92;;;;;;;;;;5075045;28;20526;-66
2022/06/24 01:07:55;;;;;;;5.65;2.83;;;;;;;;;;5073601;28;20024;-66
2022/06/24 01:10:20;;;;;;;5.97;2.67;;;;;;;;;;5074619;28;20432;-66
2022/06/24 01:12:45;;;;;;;5.32;2.80;;;;;;;;;;5078359;28;20426;-66
2022/06/24 01:15:11;;;;;;;5.63;2.85;;;;;;;;;;5076199;28;20651;-66
2022/06/24 01:17:39;;;;;;;6.63;2.88;;;;;;;;;;5081808;28;20134;-66
2022/06/24 01:20:05;;;;;;;5.13;2.88;;;;;;;;;;5073828;28;20048;-66
2022/06/24 01:22:31;;;;;;;6.28;2.90;;;;;;;;;;5076761;28;20527;-66
2022/06/24 01:24:57;;;;;;;6.60;2.83;;;;;;;;;;5073415;28;20029;-66
2022/06/24 01:27:22;;;;;;;5.65;2.80;;;;;;;;;;5073745;28;20043;-66
2022/06/24 01:29:47;;;;;;;9.35;2.95;;;;;;;;;;5072775;28;20794;-66
2022/06/24 01:32:13;;;;;;;6.13;2.70;;;;;;;;;;5076098;28;20473;-66
2022/06/24 01:34:38;;;;;;;5.82;2.80;;;;;;;;;;5075159;28;20039;-66
2022/06/24 01:37:04;;;;;;;6.63;3.00;;;;;;;;;;5080219;28;20028;-66
2022/06/24 01:39:29;;;;;;;6.40;2.90;;;;;;;;;;5074449;28;20021;-66
2022/06/24 01:41:54;;;;;;;6.93;3.30;;;;;;;;;;5073186;28;20043;-66
2022/06/24 01:44:21;;;;;;;8.30;3.63;;;;;;;;;;5078876;28;20020;-67
2022/06/24 01:46:47;;;;;;;7.78;3.20;;;;;;;;;;5076575;28;20066;-66
2022/06/24 01:49:12;;;;;;;9.93;2.97;;;;;;;;;;5073849;28;20028;-66
2022/06/24 01:51:39;;;;;;;5.93;3.03;;;;;;;;;;5080679;28;20024;-66
2022/06/24 01:54:05;;;;;;;6.00;3.08;;;;;;;;;;5081108;28;20028;-66
2022/06/24 01:56:30;;;;;;;7.07;3.53;;;;;;;;;;5076751;28;20078;-66
2022/06/24 01:58:55;;;;;;;6.13;3.40;;;;;;;;;;5073411;28;20027;-66
2022/06/24 02:01:20;;;;;;;7.40;3.28;;;;;;;;;;5076517;28;20031;-66
2022/06/24 02:03:46;;;;;;;5.75;3.08;;;;;;;;;;5076157;28;20025;-66
2022/06/24 02:06:11;;;;;;;5.40;3.05;;;;;;;;;;5075573;28;20086;-66
2022/06/24 02:08:37;;;;;;;12.43;3.80;;;;;;;;;;5080900;28;20512;-66
2022/06/24 02:13:47;;;;;;;6.43;3.25;;;;;;;;;;5075387;28;20026;-66
2022/06/24 02:16:13;;;;;;;6.22;3.20;;;;;;;;;;5082362;28;20016;-66
2022/06/24 02:18:39;;;;;;;6.82;3.20;;;;;;;;;;5079244;28;20032;-66
2022/06/24 02:21:04;;;;;;;7.90;3.55;;;;;;;;;;5083250;28;20107;-65
2022/06/24 02:23:30;;;;;;;8.98;3.40;;;;;;;;;;5081148;28;20054;-66
2022/06/24 02:25:56;;;;;;;8.35;3.35;;;;;;;;;;5087710;28;20444;-65
2022/06/24 02:28:21;;;;;;;6.57;3.17;;;;;;;;;;5075511;28;20046;-66
2022/06/24 02:30:47;;;;;;;6.30;3.47;;;;;;;;;;5077344;28;20388;-66
2022/06/24 02:33:13;;;;;;;5.30;3.28;;;;;;;;;;5084374;28;20020;-66
2022/06/24 02:35:39;;;;;;;7.10;3.38;;;;;;;;;;5084119;28;20036;-66
2022/06/24 02:38:04;;;;;;;6.75;3.47;;;;;;;;;;5075924;28;20381;-65
2022/06/24 02:40:45;;;;;;;8.07;3.30;;;;;;;;;;5080672;28;20031;-66
2022/06/24 02:43:23;;;;;;;6.30;2.92;;;;;;;;;;5080060;28;20015;-65
2022/06/24 02:45:50;;;;;;;5.10;3.20;;;;;;;;;;5075551;28;20070;-65
2022/06/24 02:48:16;;;;;;;7.60;3.30;;;;;;;;;;5081321;28;20071;-66
2022/06/24 02:50:43;;;;;;;5.30;3.08;;;;;;;;;;5080295;28;20356;-65
2022/06/24 02:53:08;;;;;;;5.05;3.10;;;;;;;;;;5073157;28;20028;-65
2022/06/24 02:55:35;;;;;;;6.85;3.10;;;;;;;;;;5077228;28;20028;-65
2022/06/24 02:58:00;;;;;;;8.60;3.33;;;;;;;;;;5077247;28;20476;-65
2022/06/24 03:00:26;;;;;;;8.13;3.22;;;;;;;;;;5072160;28;20016;-65
2022/06/24 03:02:51;;;;;;;5.20;3.20;;;;;;;;;;5083712;28;20029;-65
2022/06/24 03:05:16;;;;;;;8.25;3.40;;;;;;;;;;5078657;28;20024;-65
2022/06/24 03:07:41;;;;;;;5.53;3.28;;;;;;;;;;5074633;28;20641;-65
2022/06/24 03:10:07;;;;;;;7.57;3.70;;;;;;;;;;5083612;28;20106;-65
2022/06/24 03:12:32;;;;;;;7.93;3.47;;;;;;;;;;5077946;28;20028;-65
2022/06/24 03:14:57;;;;;;;8.68;3.50;;;;;;;;;;5077169;28;20034;-65
2022/06/24 03:17:23;;;;;;;5.65;3.53;;;;;;;;;;5078375;28;20020;-65
2022/06/24 03:19:48;;;;;;;6.57;3.58;;;;;;;;;;5079968;28;20113;-65
2022/06/24 03:22:13;;;;;;;7.05;3.28;;;;;;;;;;5074376;28;20030;-65
2022/06/24 03:24:38;;;;;;;6.53;3.60;;;;;;;;;;5076352;28;20028;-65
2022/06/24 03:27:04;;;;;;;5.72;3.35;;;;;;;;;;5077500;28;20039;-65
2022/06/24 03:29:30;;;;;;;8.43;3.60;;;;;;;;;;5075036;28;20028;-65
2022/06/24 03:31:55;;;;;;;8.20;3.45;;;;;;;;;;5072624;28;20021;-65
2022/06/24 03:34:20;;;;;;;10.25;3.10;;;;;;;;;;5070651;28;20563;-65
2022/06/24 03:36:45;;;;;;;6.72;3.22;;;;;;;;;;5075716;28;20024;-65
2022/06/24 03:39:11;;;;;;;7.43;3.75;;;;;;;;;;5072156;28;20024;-66
2022/06/24 03:41:36;;;;;;;5.43;3.55;;;;;;;;;;5075088;28;20031;-66
2022/06/24 03:44:01;;;;;;;6.35;3.15;;;;;;;;;;5077398;28;20024;-66
2022/06/24 03:46:26;;;;;;;12.65;3.30;;;;;;;;;;5074410;28;20773;-66
2022/06/24 03:48:52;;;;;;;10.48;3.33;;;;;;;;;;5080889;28;20053;-65
2022/06/24 03:51:17;;;;;;;5.95;3.40;;;;;;;;;;5074481;28;20502;-65
2022/06/24 03:53:42;;;;;;;7.85;3.30;;;;;;;;;;5075435;28;20037;-65
2022/06/24 03:56:09;;;;;;;7.90;3.40;;;;;;;;;;5071194;28;20119;-65
2022/06/24 03:58:34;;;;;;;7.25;3.67;;;;;;;;;;5078924;28;20119;-65
2022/06/24 04:01:03;;;;;;;8.27;3.65;;;;;;;;;;5073466;28;20516;-66
2022/06/24 04:03:28;;;;;;;11.23;4.07;;;;;;;;;;5073708;28;20115;-66
2022/06/24 04:05:53;;;;;;;6.00;3.60;;;;;;;;;;5076001;28;20437;-66
2022/06/24 04:08:19;;;;;;;7.05;3.75;;;;;;;;;;5069980;28;20031;-66
2022/06/24 04:10:44;;;;;;;7.68;3.67;;;;;;;;;;5077385;28;20024;-66
2022/06/24 04:13:09;;;;;;;5.60;3.67;;;;;;;;;;5084317;28;20089;-66
2022/06/24 04:15:34;;;;;;;8.93;4.35;;;;;;;;;;5081610;28;20093;-67
2022/06/24 04:18:00;;;;;;;5.80;3.33;;;;;;;;;;5073692;28;20111;-66
2022/06/24 04:20:25;;;;;;;8.68;3.38;;;;;;;;;;5077733;28;20024;-66
2022/06/24 04:22:50;;;;;;;7.68;3.15;;;;;;;;;;5072443;28;20032;-66
2022/06/24 04:25:16;;;;;;;11.35;3.30;;;;;;;;;;5071340;28;20070;-65
2022/06/24 04:27:41;;;;;;;6.43;3.47;;;;;;;;;;5071715;28;20020;-65
2022/06/24 04:30:07;;;;;;;8.15;3.88;;;;;;;;;;5075745;28;20174;-65
2022/06/24 04:32:33;;;;;;;6.53;3.30;;;;;;;;;;5085685;28;20089;-65
2022/06/24 04:34:58;;;;;;;6.55;3.75;;;;;;;;;;5082558;28;20032;-66
2022/06/24 04:37:23;;;;;;;6.50;3.22;;;;;;;;;;5080440;28;20026;-66
2022/06/24 04:39:49;;;;;;;7.50;3.28;;;;;;;;;;5074091;28;20024;-66
2022/06/24 04:42:14;;;;;;;7.63;2.88;;;;;;;;;;5075218;28;20024;-66
2022/06/24 04:44:39;;;;;;;6.43;3.25;;;;;;;;;;5083873;28;20020;-66
2022/06/24 04:47:05;;;;;;;6.28;2.95;;;;;;;;;;5074785;28;20021;-66
2022/06/24 04:49:31;;;;;;;5.82;2.92;;;;;;;;;;5086042;28;20976;-67
2022/06/24 04:51:56;;;;;;;5.72;3.00;;;;;;;;;;5090041;28;20587;-67
2022/06/24 04:54:22;;;;;;;7.07;3.08;;;;;;;;;;5080576;28;20111;-66
2022/06/24 04:56:47;;;;;;;4.82;3.10;;;;;;;;;;5082914;28;20039;-67
2022/06/24 04:59:12;;;;;;;8.30;2.85;;;;;;;;;;5083070;28;20111;-66
2022/06/24 05:01:38;;;;;;;8.13;2.80;;;;;;;;;;5073246;28;20119;-67
2022/06/24 05:04:03;;;;;;;6.43;2.85;;;;;;;;;;5074729;28;20555;-67
2022/06/24 05:06:28;;;;;;;6.05;2.85;;;;;;;;;;5078400;28;20032;-66
2022/06/24 05:08:54;;;;;;;8.02;2.65;;;;;;;;;;5080817;28;20025;-67
2022/06/24 05:11:19;;;;;;;5.50;3.00;;;;;;;;;;5077266;28;20024;-67
2022/06/24 05:13:44;;;;;;;7.40;2.60;;;;;;;;;;5077272;28;20407;-67
2022/06/24 05:16:09;;;;;;;5.07;2.75;;;;;;;;;;5081379;28;20486;-67
2022/06/24 05:18:35;;;;;;;6.38;2.63;;;;;;;;;;5076214;28;20483;-67
2022/06/24 05:21:00;;;;;;;9.25;2.40;;;;;;;;;;5075548;28;20024;-67
2022/06/24 05:23:25;;;;;;;5.93;2.45;;;;;;;;;;5074478;28;20017;-67
2022/06/24 05:25:50;;;;;;;7.18;2.90;;;;;;;;;;5073042;28;20020;-67
2022/06/24 05:28:15;;;;;;;9.23;2.80;;;;;;;;;;5079669;28;20020;-68
2022/06/24 05:30:41;;;;;;;6.60;2.70;;;;;;;;;;5075569;28;20112;-67
2022/06/24 05:33:06;;;;;;;7.65;2.78;;;;;;;;;;5074252;28;20082;-67
2022/06/24 05:35:31;;;;;;;5.05;2.30;;;;;;;;;;5073550;28;20028;-67
2022/06/24 05:37:56;;;;;;;6.53;2.42;;;;;;;;;;5075705;28;20033;-67
2022/06/24 05:40:22;;;;;;;10.25;2.92;;;;;;;;;;5078765;28;20023;-67
2022/06/24 05:42:47;;;;;;;13.13;2.90;;;;;;;;;;5077070;28;20023;-67
2022/06/24 05:45:12;;;;;;;8.50;2.90;;;;;;;;;;5078999;28;20155;-67
2022/06/24 05:47:37;;;;;;;10.68;3.17;;;;;;;;;;5083486;28;20044;-67
2022/06/24 05:50:03;;;;;;;7.70;3.17;;;;;;;;;;5076522;28;20017;-67
2022/06/24 05:55:12;;;;;;;7.25;3.20;;;;;;;;;;5078694;28;20119;-67
2022/06/24 05:57:37;;;;;;;11.50;3.75;;;;;;;;;;5071977;28;20601;-68
2022/06/24 06:00:03;;;;;;;7.45;3.00;;;;;;;;;;5074389;28;20104;-68
2022/06/24 06:02:28;;;;;;;7.75;3.40;;;;;;;;;;5080231;28;20078;-68
2022/06/24 06:04:53;;;;;;;63.35;4.93;;;;;;;;;;5077596;28;20023;-67
2022/06/24 06:07:19;;;;;;;7.90;3.63;;;;;;;;;;5072713;28;20044;-68
2022/06/24 06:09:44;;;;;;;7.82;3.90;;;;;;;;;;5086065;28;20031;-68
2022/06/24 06:12:10;;;;;;;12.00;4.60;;;;;;;;;;5086358;28;20028;-67
2022/06/24 06:14:35;;;;;;;12.60;4.75;;;;;;;;;;5076711;28;20025;-67
2022/06/24 06:17:00;;;;;;;12.60;5.43;;;;;;;;;;5091773;28;20035;-67
2022/06/24 06:19:26;;;;;;;9.85;5.97;;;;;;;;;;5089693;28;20019;-67
2022/06/24 06:21:51;;;;;;;10.65;6.10;;;;;;;;;;5092661;28;20020;-67
2022/06/24 06:24:16;;;;;;;11.63;7.07;;;;;;;;;;5091652;28;20024;-67
2022/06/24 06:26:41;;;;;;;14.35;6.53;;;;;;;;;;5092939;28;20019;-67
2022/06/24 06:29:07;;;;;;;10.07;5.25;;;;;;;;;;5091627;28;20412;-68
2022/06/24 06:31:32;;;;;;;9.73;5.35;;;;;;;;;;5084406;28;20024;-67
2022/06/24 06:33:57;;;;;;;12.50;5.63;;;;;;;;;;5075655;28;20274;-68
2022/06/24 06:36:22;;;;;;;11.30;5.38;;;;;;;;;;5077631;28;20384;-68
2022/06/24 06:38:48;;;;;;;12.60;6.10;;;;;;;;;;5092336;28;20024;-67
2022/06/24 06:41:14;;;;;;;11.52;6.63;;;;;;;;;;5091328;28;20052;-67
2022/06/24 06:43:39;;;;;;;10.70;6.20;;;;;;;;;;5092586;28;20113;-67
2022/06/24 06:46:07;;;;;;;12.90;6.88;;;;;;;;;;5085443;28;20024;-67
2022/06/24 06:48:32;;;;;;;12.80;6.93;;;;;;;;;;5087606;28;20024;-66
2022/06/24 06:50:58;;;;;;;10.40;7.40;;;;;;;;;;5073710;28;20043;-67
2022/06/24 06:53:24;;;;;;;10.57;7.07;;;;;;;;;;5075818;28;20028;-66
2022/06/24 06:55:50;;;;;;;13.27;8.00;;;;;;;;;;5092393;28;20023;-67
2022/06/24 06:58:15;;;;;;;14.05;7.25;;;;;;;;;;5091027;28;20020;-67
2022/06/24 07:00:41;;;;;;;17.42;8.15;;;;;;;;;;5090654;28;20380;-67
2022/06/24 07:03:06;;;;;;;12.50;7.28;;;;;;;;;;5090211;28;20028;-67
2022/06/24 07:05:31;;;;;;;12.35;7.32;;;;;;;;;;5074367;28;20024;-67
2022/06/24 07:07:56;;;;;;;12.63;6.93;;;;;;;;;;5092226;28;20047;-67
2022/06/24 07:10:22;;;;;;;12.30;8.10;;;;;;;;;;5090267;28;20020;-67
2022/06/24 07:12:47;;;;;;;16.58;8.00;;;;;;;;;;5091889;28;20027;-67
2022/06/24 07:15:14;;;;;;;12.73;8.13;;;;;;;;;;5090417;28;20074;-67
2022/06/24 07:17:40;;;;;;;14.73;8.30;;;;;;;;;;5092141;28;20024;-67
2022/06/24 07:20:05;;;;;;;12.80;8.15;;;;;;;;;;5075834;28;20513;-67
2022/06/24 07:22:30;;;;;;;13.95;8.00;;;;;;;;;;5073363;28;20028;-67
2022/06/24 07:24:56;;;;;;;12.63;8.00;;;;;;;;;;5080402;28;20031;-67
2022/06/24 07:27:21;;;;;;;14.23;8.45;;;;;;;;;;5086161;28;20032;-67
2022/06/24 07:29:46;;;;;;;12.95;8.35;;;;;;;;;;5090602;28;20032;-67
2022/06/24 07:32:13;;;;;;;14.65;8.07;;;;;;;;;;5091900;28;20020;-67
2022/06/24 07:34:38;;;;;;;15.55;8.65;;;;;;;;;;5082513;28;20027;-67
2022/06/24 07:37:03;;;;;;;14.52;8.30;;;;;;;;;;5084412;28;20123;-67
2022/06/24 07:39:30;;;;;;;15.60;8.70;;;;;;;;;;5089479;28;20056;-67
2022/06/24 07:41:55;;;;;;;15.55;7.95;;;;;;;;;;5091553;28;20032;-67
2022/06/24 07:44:21;;;;;;;12.20;7.80;;;;;;;;;;5087358;28;20082;-67
2022/06/24 07:46:46;;;;;;;13.73;8.35;;;;;;;;;;5089943;28;20056;-67
2022/06/24 07:49:12;;;;;;;11.93;8.77;;;;;;;;;;5086101;28;20047;-66
2022/06/24 07:51:37;;;;;;;12.98;8.73;;;;;;;;;;5072386;28;20071;-67
2022/06/24 07:54:05;;;;;;;12.07;7.97;;;;;;;;;;5091534;28;20036;-67
2022/06/24 07:59:14;;;;;;;13.75;8.40;;;;;;;;;;5071716;28;20070;-67
2022/06/24 08:01:39;;;;;;;17.05;8.10;;;;;;;;;;5072726;28;20020;-67
2022/06/24 08:04:07;;;;;;;12.68;7.88;;;;;;;;;;5091640;28;20016;-67
2022/06/24 08:06:33;;;;;;;9.80;7.40;;;;;;;;;;5089001;28;20091;-67
2022/06/24 08:08:59;;;;;;;11.55;7.57;;;;;;;;;;5075093;28;20051;-66
2022/06/24 08:11:24;;;;;;;11.38;6.88;;;;;;;;;;5089040;28;20020;-66
2022/06/24 08:13:49;;;;;;;10.30;6.35;;;;;;;;;;5094711;28;20034;-66
2022/06/24 08:16:14;;;;;;;10.98;6.85;;;;;;;;;;5093937;28;20035;-66
2022/06/24 08:18:39;;;;;;;15.57;6.90;;;;;;;;;;5095014;28;20134;-66
2022/06/24 08:21:05;;;;;;;10.18;6.68;;;;;;;;;;5079829;28;20035;-66
2022/06/24 08:23:30;;;;;;;13.18;8.27;;;;;;;;;;5074794;28;20417;-66
2022/06/24 08:25:55;;;;;;;13.68;7.90;;;;;;;;;;5088546;28;20077;-66
2022/06/24 08:28:20;;;;;;;14.35;8.43;;;;;;;;;;5095014;28;20032;-66
2022/06/24 08:30:46;;;;;;;18.58;8.20;;;;;;;;;;5088084;28;20028;-66
2022/06/24 08:33:11;;;;;;;14.82;8.35;;;;;;;;;;5092767;28;20023;-65
2022/06/24 08:35:37;;;;;;;15.00;8.90;;;;;;;;;;5075638;28;20376;-66
2022/06/24 08:38:02;;;;;;;14.45;8.18;;;;;;;;;;5075574;28;20028;-66
2022/06/24 08:40:28;;;;;;;12.50;8.30;;;;;;;;;;5087525;28;20016;-67
2022/06/24 08:42:54;;;;;;;13.63;8.38;;;;;;;;;;5075428;28;20032;-66
2022/06/24 08:45:19;;;;;;;16.58;8.32;;;;;;;;;;5090327;28;20031;-66
2022/06/24 08:47:45;;;;;;;13.07;7.95;;;;;;;;;;5092789;28;20024;-66
2022/06/24 08:50:11;;;;;;;13.73;8.05;;;;;;;;;;5088382;28;20032;-66
2022/06/24 08:52:37;;;;;;;14.73;7.68;;;;;;;;;;5093078;28;20039;-66
2022/06/24 08:55:03;;;;;;;11.15;7.38;;;;;;;;;;5094715;28;20111;-66
2022/06/24 08:57:30;;;;;;;16.08;7.60;;;;;;;;;;5092920;28;20069;-66
2022/06/24 08:59:55;;;;;;;12.93;7.45;;;;;;;;;;5094772;28;20020;-66
2022/06/24 09:02:20;;;;;;;11.25;6.85;;;;;;;;;;5094489;28;20379;-66
2022/06/24 09:04:45;;;;;;;11.15;7.68;;;;;;;;;;5082601;28;20380;-66
2022/06/24 09:07:23;;;;;;;11.32;7.78;;;;;;;;;;5094544;28;20073;-66
2022/06/24 09:09:59;;;;;;;9.13;6.60;;;;;;;;;;5086007;28;20353;-66
2022/06/24 09:12:27;;;;;;;13.65;6.88;;;;;;;;;;5094084;28;20054;-66
2022/06/24 09:14:52;;;;;;;10.13;6.70;;;;;;;;;;5090344;28;20024;-66
2022/06/24 09:17:26;;;;;;;9.07;5.60;;;;;;;;;;5093993;28;20026;-66
2022/06/24 09:19:51;;;;;;;8.70;5.70;;;;;;;;;;5075294;28;20032;-66
2022/06/24 09:22:21;;;;;;;13.93;6.07;;;;;;;;;;5080955;28;20016;-66
2022/06/24 09:24:47;;;;;;;9.90;5.60;;;;;;;;;;5075992;28;20043;-67
2022/06/24 09:27:13;;;;;;;9.52;5.97;;;;;;;;;;5073992;28;20469;-66
2022/06/24 09:29:45;;;;;;;7.80;4.70;;;;;;;;;;5090982;28;20027;-66
2022/06/24 09:32:11;;;;;;;8.95;3.90;;;;;;;;;;5091787;28;20028;-66
2022/06/24 09:34:36;;;;;;;8.30;3.13;;;;;;;;;;5089089;28;20024;-66
2022/06/24 09:37:01;;;;;;;6.53;2.53;;;;;;;;;;5090883;28;20034;-66
2022/06/24 09:39:26;;;;;;;4.82;2.53;;;;;;;;;;5091540;28;20024;-66
2022/06/24 09:41:56;;;;;;;5.75;3.25;;;;;;;;;;5086305;28;20043;-66
2022/06/24 09:44:21;;;;;;;7.47;3.00;;;;;;;;;;5081818;28;20026;-66
2022/06/24 09:46:48;;;;;;;6.97;3.70;;;;;;;;;;5089894;28;20531;-66
2022/06/24 09:49:14;;;;;;;8.73;4.15;;;;;;;;;;5079159;28;20020;-66
2022/06/24 09:51:40;;;;;;;8.18;4.28;;;;;;;;;;5092659;28;20043;-66
2022/06/24 09:54:06;;;;;;;6.55;4.20;;;;;;;;;;5090246;28;20016;-67
2022/06/24 09:56:31;;;;;;;9.00;5.10;;;;;;;;;;5091024;28;20547;-66
2022/06/24 10:01:41;;;;;;;8.98;5.13;;;;;;;;;;5081871;28;20085;-66
2022/06/24 10:04:13;;;;;;;6.05;1.80;;;;;;;;;;5093461;28;20498;-66
2022/06/24 10:06:41;;;;;;;3.33;1.30;;;;;;;;;;5091714;28;20032;-66
2022/06/24 10:09:07;;;;;;;5.03;1.52;;;;;;;;;;5093183;28;20020;-66
2022/06/24 10:11:33;;;;;;;3.75;1.50;;;;;;;;;;5091903;28;20129;-66
2022/06/24 10:13:59;;;;;;;4.30;1.58;;;;;;;;;;5090125;28;20047;-66
2022/06/24 10:16:24;;;;;;;4.97;1.58;;;;;;;;;;5083593;28;20109;-66
2022/06/24 10:18:50;;;;;;;7.28;1.75;;;;;;;;;;5093199;28;20471;-66
2022/06/24 10:21:16;;;;;;;6.65;1.65;;;;;;;;;;5091295;28;20060;-66
2022/06/24 10:23:45;;;;;;;3.08;1.50;;;;;;;;;;5092763;28;20070;-66
2022/06/24 10:26:17;;;;;;;5.80;1.60;;;;;;;;;;5090554;28;20411;-65
2022/06/24 10:29:06;;;;;;;5.65;1.35;;;;;;;;;;5091809;28;20028;-66
2022/06/24 10:31:37;;;;;;;5.05;1.63;;;;;;;;;;5081822;28;20028;-66
2022/06/24 10:34:02;;;;;;;5.05;1.38;;;;;;;;;;5092483;28;20118;-66
2022/06/24 10:36:31;;;;;;;4.43;1.30;;;;;;;;;;5089248;28;20182;-66
2022/06/24 10:39:06;;;;;;;5.05;1.73;;;;;;;;;;5085733;28;20095;-66
2022/06/24 10:41:38;;;;;;;5.13;1.40;;;;;;;;;;5089386;28;20099;-67
2022/06/24 10:44:33;;;;;;;3.35;1.20;;;;;;;;;;5092627;28;20035;-66
2022/06/24 10:47:04;;;;;;;6.93;1.33;;;;;;;;;;5066914;28;20101;-66
2022/06/24 10:49:55;;;;;;;2.83;1.10;;;;;;;;;;5081695;28;20366;-66
2022/06/24 10:52:33;;;;;;;3.13;1.20;;;;;;;;;;5064782;28;20044;-66
2022/06/24 10:57:42;;;;;;;4.90;1.20;;;;;;;;;;5091345;28;20028;-66
2022/06/24 11:00:11;;;;;;;4.45;1.30;;;;;;;;;;5071514;28;20082;-67
2022/06/24 11:02:36;;;;;;;5.53;1.52;;;;;;;;;;5072592;28;20024;-67
2022/06/24 11:05:02;;;;;;;5.68;1.30;;;;;;;;;;5085445;28;20016;-66
2022/06/24 11:07:28;;;;;;;3.65;1.33;;;;;;;;;;5092034;28;20089;-66
2022/06/24 11:09:53;;;;;;;2.75;1.00;;;;;;;;;;5089483;28;20102;-66
2022/06/24 11:12:28;;;;;;;5.30;1.17;;;;;;;;;;5091855;28;20109;-66
2022/06/24 11:14:54;;;;;;;3.20;1.00;;;;;;;;;;5084795;28;20024;-66
2022/06/24 11:17:23;;;;;;;7.25;1.42;;;;;;;;;;5071360;28;20024;-66
2022/06/24 11:19:48;;;;;;;5.18;1.20;;;;;;;;;;5076665;28;20110;-66
2022/06/24 11:22:13;;;;;;;6.65;1.30;;;;;;;;;;5075711;28;20115;-66
2022/06/24 11:24:39;;;;;;;5.53;1.15;;;;;;;;;;5075884;28;20024;-66
2022/06/24 11:27:08;;;;;;;4.43;1.30;;;;;;;;;;5079508;28;20073;-66
2022/06/24 11:29:51;;;;;;;3.40;1.17;;;;;;;;;;5074754;28;20476;-67
2022/06/24 11:32:16;;;;;;;3.97;1.35;;;;;;;;;;5084197;28;20054;-66
2022/06/24 11:34:43;;;;;;;5.25;1.40;;;;;;;;;;5075748;28;20430;-66
2022/06/24 11:37:08;;;;;;;4.65;1.10;;;;;;;;;;5074741;28;20471;-67
2022/06/24 11:39:34;;;;;;;5.68;1.10;;;;;;;;;;5070022;28;20074;-66
2022/06/24 11:41:59;;;;;;;7.07;1.55;;;;;;;;;;5073834;28;20412;-66
2022/06/24 11:44:31;;;;;;;4.70;1.40;;;;;;;;;;5071184;28;20028;-66
2022/06/24 11:46:56;;;;;;;4.65;1.15;;;;;;;;;;5074524;28;20468;-67
2022/06/24 11:49:22;;;;;;;4.65;1.23;;;;;;;;;;5078889;28;20070;-66
2022/06/24 11:51:48;;;;;;;5.72;1.30;;;;;;;;;;5076616;28;20043;-66
2022/06/24 11:54:13;;;;;;;6.00;1.15;;;;;;;;;;5071385;28;20095;-66
2022/06/24 11:56:39;;;;;;;4.28;1.40;;;;;;;;;;5078501;28;20043;-66
2022/06/24 11:59:05;;;;;;;5.63;1.30;;;;;;;;;;5069945;28;20028;-66
2022/06/24 12:01:31;;;;;;;2.00;0.88;;;;;;;;;;5069866;28;20104;-66
2022/06/24 12:03:58;;;;;;;3.67;1.10;;;;;;;;;;5072648;28;20108;-66
2022/06/24 12:06:23;;;;;;;4.10;1.10;;;;;;;;;;5070263;28;20017;-66
2022/06/24 12:08:49;;;;;;;4.05;1.10;;;;;;;;;;5075909;28;20404;-66
2022/06/24 12:11:24;;;;;;;4.65;1.05;;;;;;;;;;5082501;28;20024;-67
2022/06/24 12:13:59;;;;;;;2.83;1.05;;;;;;;;;;5074736;28;20028;-66
2022/06/24 12:16:25;;;;;;;4.47;1.10;;;;;;;;;;5081978;28;20021;-66
2022/06/24 12:18:50;;;;;;;5.53;1.10;;;;;;;;;;5072745;28;20077;-66
2022/06/24 12:21:23;;;;;;;3.67;1.10;;;;;;;;;;5072066;28;20412;-67
2022/06/24 12:23:48;;;;;;;4.65;1.20;;;;;;;;;;5083474;28;20081;-67
2022/06/24 12:26:14;;;;;;;5.18;1.40;;;;;;;;;;5086792;28;20476;-66
2022/06/24 12:28:39;;;;;;;5.30;1.40;;;;;;;;;;5080415;28;20556;-66
2022/06/24 12:31:05;;;;;;;5.82;1.25;;;;;;;;;;5082271;28;20512;-66
2022/06/24 12:33:33;;;;;;;5.55;1.40;;;;;;;;;;5075844;28;20424;-66
2022/06/24 12:36:08;;;;;;;5.05;1.50;;;;;;;;;;5081919;28;20028;-66
2022/06/24 12:38:34;;;;;;;4.55;1.38;;;;;;;;;;5087202;28;20035;-67
2022/06/24 12:41:13;;;;;;;5.43;2.10;;;;;;;;;;5071514;28;20024;-66
2022/06/24 12:43:51;;;;;;;6.90;1.85;;;;;;;;;;5082201;28;20254;-66
2022/06/24 12:46:17;;;;;;;4.97;1.90;;;;;;;;;;5082946;28;20048;-66
2022/06/24 12:51:25;;;;;;;5.28;1.50;;;;;;;;;;5073806;28;20040;-67
2022/06/24 12:53:52;;;;;;;6.47;1.60;;;;;;;;;;5072905;28;20028;-67
2022/06/24 12:56:18;;;;;;;5.13;1.70;;;;;;;;;;5077104;28;20056;-67
2022/06/24 12:58:43;;;;;;;7.60;2.13;;;;;;;;;;5087008;28;20054;-67
2022/06/24 13:01:08;;;;;;;3.80;1.63;;;;;;;;;;5073005;28;20033;-66
2022/06/24 13:03:33;;;;;;;5.65;2.10;;;;;;;;;;5074636;28;20035;-66
2022/06/24 13:05:59;;;;;;;5.43;2.33;;;;;;;;;;5076620;28;20641;-66
2022/06/24 13:08:25;;;;;;;5.40;2.85;;;;;;;;;;5074394;28;20472;-66
2022/06/24 13:10:50;;;;;;;6.60;3.00;;;;;;;;;;5091262;28;20742;-66
2022/06/24 13:13:16;;;;;;;5.95;2.85;;;;;;;;;;5075495;28;20020;-66
2022/06/24 13:15:41;;;;;;;3.80;2.50;;;;;;;;;;5073674;28;20134;-67
2022/06/24 13:18:07;;;;;;;5.15;3.20;;;;;;;;;;5075005;28;20024;-66
2022/06/24 13:20:32;;;;;;;6.65;2.90;;;;;;;;;;5083552;28;20456;-66
2022/06/24 13:22:58;;;;;;;4.40;2.72;;;;;;;;;;5079393;28;20046;-66
2022/06/24 13:25:23;;;;;;;4.57;2.75;;;;;;;;;;5072189;28;20024;-66
2022/06/24 13:27:49;;;;;;;4.35;2.30;;;;;;;;;;5079551;28;20036;-66
2022/06/24 13:30:14;;;;;;;3.70;2.15;;;;;;;;;;5081749;28;20047;-66
2022/06/24 13:32:40;;;;;;;3.85;1.90;;;;;;;;;;5077805;28;20099;-66
2022/06/24 13:35:05;;;;;;;3.50;1.83;;;;;;;;;;5071869;28;20012;-66
2022/06/24 13:37:31;;;;;;;5.53;2.10;;;;;;;;;;5092166;28;20730;-66
2022/06/24 13:39:57;;;;;;;3.83;1.95;;;;;;;;;;5083114;28;20700;-66
2022/06/24 13:42:22;;;;;;;3.33;1.63;;;;;;;;;;5075647;28;20016;-66
2022/06/24 13:44:47;;;;;;;5.88;1.95;;;;;;;;;;5080421;28;20433;-66
2022/06/24 13:47:12;;;;;;;2.63;1.40;;;;;;;;;;5076994;28;20038;-66
2022/06/24 13:49:38;;;;;;;5.10;2.03;;;;;;;;;;5081460;28;20040;-66
2022/06/24 13:52:03;;;;;;;3.65;1.92;;;;;;;;;;5077562;28;20388;-66
2022/06/24 13:54:29;;;;;;;4.40;2.00;;;;;;;;;;5074056;28;20036;-66
2022/06/24 13:56:55;;;;;;;4.05;2.08;;;;;;;;;;5074165;28;20493;-66
2022/06/24 13:59:20;;;;;;;3.42;1.75;;;;;;;;;;5072779;28;20099;-66
2022/06/24 14:01:45;;;;;;;2.45;1.20;;;;;;;;;;5073045;28;20069;-66
2022/06/24 14:04:10;;;;;;;5.38;1.50;;;;;;;;;;5085496;28;20020;-66
2022/06/24 14:06:36;;;;;;;2.55;1.20;;;;;;;;;;5080379;28;20024;-66
2022/06/24 14:09:01;;;;;;;3.45;1.15;;;;;;;;;;5074339;28;20111;-66
2022/06/24 14:11:26;;;;;;;2.17;1.20;;;;;;;;;;5081751;28;20028;-66
2022/06/24 14:13:52;;;;;;;4.15;1.30;;;;;;;;;;5085450;28;20039;-66
2022/06/24 14:16:17;;;;;;;2.00;1.17;;;;;;;;;;5072433;28;20624;-66
2022/06/24 14:18:42;;;;;;;2.25;1.20;;;;;;;;;;5073869;28;20070;-66
2022/06/24 14:21:08;;;;;;;1.83;0.93;;;;;;;;;;5071958;28;20027;-66
2022/06/24 14:26:17;;;;;;;1.58;0.80;;;;;;;;;;5072075;28;20078;-67
2022/06/24 14:28:42;;;;;;;1.73;0.80;;;;;;;;;;5078607;28;20024;-66
2022/06/24 14:31:07;;;;;;;3.53;1.10;;;;;;;;;;5080362;28;20443;-66
2022/06/24 14:33:33;;;;;;;3.72;1.20;;;;;;;;;;5071304;28;20042;-66
2022/06/24 14:35:58;;;;;;;2.38;1.10;;;;;;;;;;5074134;28;20039;-66
2022/06/24 14:41:07;;;;;;;2.40;1.27;;;;;;;;;;5077557;28;20104;-66
2022/06/24 14:43:33;;;;;;;3.13;1.15;;;;;;;;;;5074639;28;20091;-66
2022/06/24 14:45:58;;;;;;;2.75;1.15;;;;;;;;;;5089578;28;20058;-66
2022/06/24 14:48:23;;;;;;;3.85;1.35;;;;;;;;;;5085442;28;20824;-66
2022/06/24 14:50:49;;;;;;;2.40;1.10;;;;;;;;;;5072651;28;20036;-66
2022/06/24 14:53:14;;;;;;;2.40;1.20;;;;;;;;;;5070584;28;20109;-66
2022/06/24 14:55:39;;;;;;;4.85;1.30;;;;;;;;;;5076723;28;20021;-66
2022/06/24 14:58:05;;;;;;;3.58;1.20;;;;;;;;;;5088149;28;20384;-66